Map

Track Data

SID SEASON NUMBER BASIN SUBBASIN NAME ISO_TIME NATURE LAT LON WMO_WIND WMO_PRES WMO_AGENCY TRACK_TYPE DIST2LAND LANDFALL IFLAG USA_AGENCY USA_ATCF_ID USA_LAT USA_LON USA_RECORD USA_STATUS USA_WIND USA_PRES USA_SSHS USA_R34_NE USA_R34_SE USA_R34_SW USA_R34_NW USA_R50_NE USA_R50_SE USA_R50_SW USA_R50_NW USA_R64_NE USA_R64_SE USA_R64_SW USA_R64_NW USA_POCI USA_ROCI USA_RMW USA_EYE TOKYO_LAT TOKYO_LON TOKYO_GRADE TOKYO_WIND TOKYO_PRES TOKYO_R50_DIR TOKYO_R50_LONG TOKYO_R50_SHORT TOKYO_R30_DIR TOKYO_R30_LONG TOKYO_R30_SHORT TOKYO_LAND CMA_LAT CMA_LON CMA_CAT CMA_WIND CMA_PRES HKO_LAT HKO_LON HKO_CAT HKO_WIND HKO_PRES NEWDELHI_LAT NEWDELHI_LON NEWDELHI_GRADE NEWDELHI_WIND NEWDELHI_PRES NEWDELHI_CI NEWDELHI_DP NEWDELHI_POCI REUNION_LAT REUNION_LON REUNION_TYPE REUNION_WIND REUNION_PRES REUNION_TNUM REUNION_CI REUNION_RMW REUNION_R34_NE REUNION_R34_SE REUNION_R34_SW REUNION_R34_NW REUNION_R50_NE REUNION_R50_SE REUNION_R50_SW REUNION_R50_NW REUNION_R64_NE REUNION_R64_SE REUNION_R64_SW REUNION_R64_NW BOM_LAT BOM_LON BOM_TYPE BOM_WIND BOM_PRES BOM_TNUM BOM_CI BOM_RMW BOM_R34_NE BOM_R34_SE BOM_R34_SW BOM_R34_NW BOM_R50_NE BOM_R50_SE BOM_R50_SW BOM_R50_NW BOM_R64_NE BOM_R64_SE BOM_R64_SW BOM_R64_NW BOM_ROCI BOM_POCI BOM_EYE BOM_POS_METHOD BOM_PRES_METHOD NADI_LAT NADI_LON NADI_CAT NADI_WIND NADI_PRES WELLINGTON_LAT WELLINGTON_LON WELLINGTON_WIND WELLINGTON_PRES DS824_LAT DS824_LON DS824_STAGE DS824_WIND DS824_PRES TD9636_LAT TD9636_LON TD9636_STAGE TD9636_WIND TD9636_PRES TD9635_LAT TD9635_LON TD9635_WIND TD9635_PRES TD9635_ROCI NEUMANN_LAT NEUMANN_LON NEUMANN_CLASS NEUMANN_WIND NEUMANN_PRES MLC_LAT MLC_LON MLC_CLASS MLC_WIND MLC_PRES USA_GUST BOM_GUST BOM_GUST_PER REUNION_GUST REUNION_GUST_PER USA_SEAHGT USA_SEARAD_NE USA_SEARAD_SE USA_SEARAD_SW USA_SEARAD_NW STORM_SPEED STORM_DIR
1934334N06144 1934 83 WP MM NOT_NAMED 1934-11-30 10:00:00 NR 6.50000 143.700 main 1016 1016 __________O___ -1 6.50000 143.700 7 2 266
1934334N06144 1934 83 WP MM NOT_NAMED 1934-11-30 12:00:00 NR 6.49471 143.625 main 1019 1019 __________P___ -1 6.49471 143.625 7 3 272
1934334N06144 1934 83 WP MM NOT_NAMED 1934-11-30 15:00:00 NR 6.50753 143.478 main 1023 1023 __________P___ -1 6.50753 143.478 7 4 282
1934334N06144 1934 83 WP MM NOT_NAMED 1934-11-30 18:00:00 NR 6.57370 143.243 main 1045 1045 __________P___ -1 6.57370 143.243 7 6 290
1934334N06144 1934 83 WP MM NOT_NAMED 1934-11-30 21:00:00 NR 6.72511 142.866 main 1057 1054 __________P___ -1 6.72511 142.866 7 9 293
1934334N06144 1934 83 WP MM NOT_NAMED 1934-11-30 22:00:00 NR 6.80000 142.700 main 1061 1056 __________O___ -1 6.80000 142.700 7 12 295
1934334N06144 1934 83 WP MM NOT_NAMED 1934-12-01 00:00:00 NR 6.99000 142.300 main 1064 1060 __________P___ -1 6.99000 142.300 7 15 296
1934334N06144 1934 83 WP MM NOT_NAMED 1934-12-01 03:00:00 NR 7.35676 141.554 main 1076 1069 __________P___ -1 7.35676 141.554 7 18 296
1934334N06144 1934 83 WP MM NOT_NAMED 1934-12-01 06:00:00 NR 7.78827 140.680 main 1089 1086 __________P___ -1 7.78827 140.680 7 20 296
1934334N06144 1934 83 WP MM NOT_NAMED 1934-12-01 09:00:00 NR 8.24726 139.726 main 1093 1095 __________P___ -1 8.24726 139.726 7 21 296
1934334N06144 1934 83 WP MM NOT_NAMED 1934-12-01 10:00:00 NR 8.40000 139.400 main 1101 1097 __________O___ -1 8.40000 139.400 7 21 294
1934334N06144 1934 83 WP MM NOT_NAMED 1934-12-01 12:00:00 NR 8.68848 138.745 main 1108 1104 __________P___ -1 8.68848 138.745 7 22 294
1934334N06144 1934 83 WP MM NOT_NAMED 1934-12-01 15:00:00 NR 9.12771 137.717 main 1122 1127 __________P___ -1 9.12771 137.717 7 22 293
1934334N06144 1934 83 WP MM NOT_NAMED 1934-12-01 18:00:00 NR 9.56036 136.685 main 1131 1033 __________P___ -1 9.56036 136.685 7 22 293
1934334N06144 1934 83 WP MM NOT_NAMED 1934-12-01 21:00:00 NR 9.97075 135.705 main 1033 1004 __________P___ -1 9.97075 135.705 7 21 293
1934334N06144 1934 83 WP MM NOT_NAMED 1934-12-01 22:00:00 NR 10.1000 135.400 main 1004 957 __________O___ -1 10.1000 135.400 7 18 294
1934334N06144 1934 83 WP MM NOT_NAMED 1934-12-02 00:00:00 NR 10.3383 134.858 main 957 881 __________P___ -1 10.3383 134.858 7 17 294
1934334N06144 1934 83 WP MM NOT_NAMED 1934-12-02 03:00:00 NR 10.6714 134.116 main 881 814 __________P___ -1 10.6714 134.116 7 16 295
1934334N06144 1934 83 WP MM NOT_NAMED 1934-12-02 06:00:00 NR 10.9865 133.422 main 814 749 __________P___ -1 10.9865 133.422 7 15 295
1934334N06144 1934 83 WP MM NOT_NAMED 1934-12-02 09:00:00 NR 11.2960 132.734 main 749 732 __________P___ -1 11.2960 132.734 7 15 295
1934334N06144 1934 83 WP MM NOT_NAMED 1934-12-02 10:00:00 NR 11.4000 132.500 main 732 679 __________O___ -1 11.4000 132.500 7 16 293
1934334N06144 1934 83 WP MM NOT_NAMED 1934-12-02 12:00:00 NR 11.6058 131.999 main 679 597 __________P___ -1 11.6058 131.999 7 16 293
1934334N06144 1934 83 WP MM NOT_NAMED 1934-12-02 15:00:00 NR 11.9144 131.236 main 597 529 __________P___ -1 11.9144 131.236 7 16 293
1934334N06144 1934 83 WP MM NOT_NAMED 1934-12-02 18:00:00 NR 12.2343 130.459 main 529 458 __________P___ -1 12.2343 130.459 7 17 293
1934334N06144 1934 83 WP MM NOT_NAMED 1934-12-02 21:00:00 NR 12.5780 129.667 main 458 427 __________P___ -1 12.5780 129.667 7 17 294
1934334N06144 1934 83 WP MM NOT_NAMED 1934-12-02 22:00:00 NR 12.7000 129.400 main 427 366 __________O___ -1 12.7000 129.400 7 18 293
1934334N06144 1934 83 WP MM NOT_NAMED 1934-12-03 00:00:00 NR 12.9295 128.819 main 366 288 __________P___ -1 12.9295 128.819 7 19 293
1934334N06144 1934 83 WP MM NOT_NAMED 1934-12-03 03:00:00 NR 13.2983 127.935 main 288 241 __________P___ -1 13.2983 127.935 7 19 295
1934334N06144 1934 83 WP MM NOT_NAMED 1934-12-03 06:00:00 NR 13.7180 127.084 main 241 207 __________P___ -1 13.7180 127.084 7 18 300
1934334N06144 1934 83 WP MM NOT_NAMED 1934-12-03 09:00:00 NR 14.2136 126.324 main 207 191 __________P___ -1 14.2136 126.324 7 18 306
1934334N06144 1934 83 WP MM NOT_NAMED 1934-12-03 10:00:00 NR 14.4000 126.100 main 191 163 __________O___ -1 14.4000 126.100 4 18 311
1934334N06144 1934 83 WP MM NOT_NAMED 1934-12-03 12:00:00 NR 14.8062 125.630 main 163 163 __________P___ -1 14.8062 125.630 4 18 316
1934334N06144 1934 83 WP MM NOT_NAMED 1934-12-03 15:00:00 NR 15.4916 125.024 main 184 184 __________P___ -1 15.4916 125.024 4 18 325
1934334N06144 1934 83 WP MM NOT_NAMED 1934-12-03 18:00:00 NR 16.2431 124.593 main 237 202 __________P___ -1 16.2431 124.593 4 17 339
1934334N06144 1934 83 WP MM NOT_NAMED 1934-12-03 21:00:00 NR 17.0330 124.400 main 202 202 __________P___ -1 17.0330 124.400 4 16 350
1934334N06144 1934 83 WP MM NOT_NAMED 1934-12-03 22:00:00 NR 17.3000 124.400 main 204 204 __________O___ -1 17.3000 124.400 4 16 8
1934334N06144 1934 83 WP MM NOT_NAMED 1934-12-04 00:00:00 NR 17.8397 124.513 main 229 232 __________P___ -1 17.8397 124.513 4 18 20
1934334N06144 1934 83 WP MM NOT_NAMED 1934-12-04 03:00:00 NR 18.6694 124.919 main 276 276 __________P___ -1 18.6694 124.919 4 19 30
1934334N06144 1934 83 WP MM NOT_NAMED 1934-12-04 06:00:00 NR 19.4889 125.512 main 358 358 __________P___ -1 19.4889 125.512 4 20 37
1934334N06144 1934 83 WP MM NOT_NAMED 1934-12-04 09:00:00 NR 20.2601 126.180 main 461 461 __________P___ -1 20.2601 126.180 4 20 40
1934334N06144 1934 83 WP MM NOT_NAMED 1934-12-04 10:00:00 NR 20.5000 126.400 main 489 489 __________O___ -1 20.5000 126.400 7 17 37
1934334N06144 1934 83 WP MM NOT_NAMED 1934-12-04 12:00:00 NR 20.9280 126.716 main 538 544 __________P___ -1 20.9280 126.716 7 15 36
1934334N06144 1934 83 WP MM NOT_NAMED 1934-12-04 15:00:00 NR 21.5136 127.201 main 618 618 __________P___ -1 21.5136 127.201 7 15 40
1934334N06144 1934 83 WP MM NOT_NAMED 1934-12-04 18:00:00 NR 22.0630 127.735 main 649 654 __________P___ -1 22.0630 127.735 7 15 44
1934334N06144 1934 83 WP MM NOT_NAMED 1934-12-04 21:00:00 NR 22.6115 128.363 main 695 691 __________P___ -1 22.6115 128.363 7 16 47
1934334N06144 1934 83 WP MM NOT_NAMED 1934-12-04 22:00:00 NR 22.8000 128.600 main 707 707 __________O___ -1 22.8000 128.600 7 19 49
1934334N06144 1934 83 WP MM NOT_NAMED 1934-12-05 00:00:00 NR 23.2214 129.133 main 746 753 __________P___ -1 23.2214 129.133 7 20 51
1934334N06144 1934 83 WP MM NOT_NAMED 1934-12-05 03:00:00 NR 23.8661 130.035 main 795 726 __________P___ -1 23.8661 130.035 7 22 53
1934334N06144 1934 83 WP MM NOT_NAMED 1934-12-05 06:00:00 NR 24.5035 131.022 main 726 670 __________P___ -1 24.5035 131.022 7 22 56
1934334N06144 1934 83 WP MM NOT_NAMED 1934-12-05 09:00:00 NR 25.1092 132.054 main 672 655 __________P___ -1 25.1092 132.054 7 22 57
1934334N06144 1934 83 WP MM NOT_NAMED 1934-12-05 10:00:00 NR 25.3000 132.400 main 657 636 __________O___ -1 25.3000 132.400 7 22 59
1934334N06144 1934 83 WP MM NOT_NAMED 1934-12-05 12:00:00 NR 25.6722 133.098 main 636 629 __________P___ -1 25.6722 133.098 7 22 61
1934334N06144 1934 83 WP MM NOT_NAMED 1934-12-05 15:00:00 NR 26.1935 134.163 main 635 631 __________P___ -1 26.1935 134.163 7 21 62
1934334N06144 1934 83 WP MM NOT_NAMED 1934-12-05 18:00:00 NR 26.6636 135.211 main 641 643 __________P___ -1 26.6636 135.211 7 20 64
1934334N06144 1934 83 WP MM NOT_NAMED 1934-12-05 21:00:00 NR 27.0762 136.195 main 668 668 __________P___ -1 27.0762 136.195 7 19 65
1934334N06144 1934 83 WP MM NOT_NAMED 1934-12-05 22:00:00 NR 27.2000 136.500 main 680 677 __________O___ -1 27.2000 136.500 7 17 64
1934334N06144 1934 83 WP MM NOT_NAMED 1934-12-06 00:00:00 NR 27.4448 137.062 main 680 653 __________P___ -1 27.4448 137.062 7 16 64
1934334N06144 1934 83 WP MM NOT_NAMED 1934-12-06 03:00:00 NR 27.7641 137.827 main 653 647 __________P___ -1 27.7641 137.827 7 14 66
1934334N06144 1934 83 WP MM NOT_NAMED 1934-12-06 06:00:00 NR 28.0286 138.524 main 655 648 __________P___ -1 28.0286 138.524 7 13 68
1934334N06144 1934 83 WP MM NOT_NAMED 1934-12-06 09:00:00 NR 28.2407 139.184 main 664 654 __________P___ -1 28.2407 139.184 7 12 71
1934334N06144 1934 83 WP MM NOT_NAMED 1934-12-06 10:00:00 NR 28.3000 139.400 main 664 664 __________O___ -1 28.3000 139.400 7 12 74
1934334N06144 1934 83 WP MM NOT_NAMED 1934-12-06 12:00:00 NR 28.4023 139.833 main 675 680 __________P___ -1 28.4023 139.833 7 12 77
1934334N06144 1934 83 WP MM NOT_NAMED 1934-12-06 15:00:00 NR 28.5214 140.482 main 699 692 __________P___ -1 28.5214 140.482 7 12 80
1934334N06144 1934 83 WP MM NOT_NAMED 1934-12-06 18:00:00 NR 28.6097 141.133 main 703 705 __________P___ -1 28.6097 141.133 7 12 82
1934334N06144 1934 83 WP MM NOT_NAMED 1934-12-06 21:00:00 NR 28.6790 141.783 main 714 714 __________P___ -1 28.6790 141.783 7 11 83
1934334N06144 1934 83 WP MM NOT_NAMED 1934-12-06 22:00:00 NR 28.7000 142.000 main 719 __________O___ -1 28.7000 142.000 7 11 84

Digital Typhoon Data and Search

About IBTrACS Database

This database is a web-friendly format of International Best Track Archive for Climate Stewardship (IBTrACS), a global best track data archive curated by NOAA dating back to 1842.

Updated: 2021-12-01